createdAt,value
2019-05-13T00:01:34.331Z,10.30
2019-05-13T00:04:00.288Z,10.30
2019-05-13T00:06:27.033Z,10.30
2019-05-13T00:08:54.348Z,10.20
2019-05-13T00:11:21.199Z,10.10
2019-05-13T00:13:47.957Z,10.10
2019-05-13T00:16:14.703Z,10.00
2019-05-13T00:18:41.632Z,9.90
2019-05-13T00:21:08.410Z,9.90
2019-05-13T00:23:35.185Z,9.90
2019-05-13T00:26:03.755Z,9.90
2019-05-13T00:28:30.505Z,9.80
2019-05-13T00:30:57.302Z,9.80
2019-05-13T00:33:24.491Z,9.80
2019-05-13T00:35:53.302Z,9.70
2019-05-13T00:38:19.996Z,9.60
2019-05-13T00:40:46.803Z,9.50
2019-05-13T00:43:14.325Z,9.40
2019-05-13T00:45:44.177Z,9.20
2019-05-13T00:48:10.888Z,9.30
2019-05-13T00:50:37.560Z,9.20
2019-05-13T00:53:04.618Z,9.20
2019-05-13T00:55:34.383Z,9.20
2019-05-13T00:58:00.718Z,9.20
2019-05-13T01:00:28.655Z,9.20
2019-05-13T01:02:55.552Z,9.20
2019-05-13T01:05:23.486Z,9.00
2019-05-13T01:07:50.235Z,9.10
2019-05-13T01:10:16.979Z,9.00
2019-05-13T01:12:46.536Z,8.90
2019-05-13T01:15:13.654Z,8.80
2019-05-13T01:17:40.556Z,8.70
2019-05-13T01:20:07.733Z,8.50
2019-05-13T01:22:34.548Z,8.40
2019-05-13T01:25:03.972Z,8.30
2019-05-13T01:27:30.184Z,8.20
2019-05-13T01:29:56.974Z,8.10
2019-05-13T01:32:24.036Z,8.10
2019-05-13T01:34:50.834Z,8.10
2019-05-13T01:37:17.507Z,8.00
2019-05-13T01:39:44.469Z,7.90
2019-05-13T01:42:13.376Z,7.90
2019-05-13T01:44:39.763Z,7.80
2019-05-13T01:47:06.552Z,7.80
2019-05-13T01:49:33.804Z,7.70
2019-05-13T01:52:00.740Z,7.60
2019-05-13T01:54:27.511Z,7.60
2019-05-13T01:56:54.370Z,7.70
2019-05-13T01:59:21.029Z,7.70
2019-05-13T02:01:47.883Z,7.60
2019-05-13T02:04:16.508Z,7.70
2019-05-13T02:06:44.353Z,7.70
2019-05-13T02:09:11.221Z,7.70
2019-05-13T02:11:38.015Z,7.70
2019-05-13T02:14:05.604Z,7.80
2019-05-13T02:16:33.932Z,7.80
2019-05-13T02:19:03.949Z,7.90
2019-05-13T02:21:30.337Z,8.00
2019-05-13T02:23:57.103Z,8.10
2019-05-13T02:26:24.107Z,8.10
2019-05-13T02:28:50.913Z,8.10
2019-05-13T02:31:29.573Z,8.20
2019-05-13T02:33:46.237Z,8.20
2019-05-13T02:36:13.513Z,8.20
2019-05-13T02:38:42.700Z,8.20
2019-05-13T02:41:08.929Z,8.20
2019-05-13T02:43:35.577Z,8.20
2019-05-13T02:46:04.253Z,8.30
2019-05-13T02:48:33.215Z,8.30
2019-05-13T02:51:03.330Z,8.30
2019-05-13T02:53:28.220Z,8.30
2019-05-13T02:55:54.996Z,8.30
2019-05-13T02:58:24.199Z,8.30
2019-05-13T03:00:53.402Z,8.30
2019-05-13T03:03:22.678Z,8.30
2019-05-13T03:05:47.804Z,8.30
2019-05-13T03:08:33.612Z,8.30
2019-05-13T03:10:43.471Z,8.40
2019-05-13T03:13:12.621Z,8.40
2019-05-13T03:15:46.422Z,8.50
2019-05-13T03:18:13.495Z,8.50
2019-05-13T03:20:42.875Z,8.50
2019-05-13T03:23:08.947Z,8.50
2019-05-13T03:25:35.660Z,8.50
2019-05-13T03:28:03.167Z,8.40
2019-05-13T03:30:34.595Z,8.40
2019-05-13T03:33:02.386Z,8.50
2019-05-13T03:35:28.107Z,8.60
2019-05-13T03:37:55.108Z,8.50
2019-05-13T03:40:23.106Z,8.60
2019-05-13T03:42:53.493Z,8.70
2019-05-13T03:45:22.901Z,8.70
2019-05-13T03:47:52.708Z,8.70
2019-05-13T03:50:22.320Z,8.80
2019-05-13T03:52:48.341Z,8.80
2019-05-13T03:55:15.119Z,8.90
2019-05-13T03:57:42.727Z,8.90
2019-05-13T04:00:13.189Z,8.90
2019-05-13T04:02:38.791Z,9.00
2019-05-13T04:05:05.616Z,9.00
2019-05-13T04:07:32.748Z,9.00
2019-05-13T04:10:03.005Z,9.10
2019-05-13T04:12:28.688Z,9.10
2019-05-13T04:14:55.524Z,9.10
2019-05-13T04:17:24.320Z,9.10
2019-05-13T04:19:52.959Z,9.10
2019-05-13T04:22:22.767Z,9.10
2019-05-13T04:24:48.072Z,9.20
2019-05-13T04:27:14.853Z,9.20
2019-05-13T04:29:43.242Z,9.30
2019-05-13T04:32:12.559Z,9.30
2019-05-13T04:34:42.440Z,9.30
2019-05-13T04:37:08.452Z,9.30
2019-05-13T04:39:45.216Z,9.30
2019-05-13T04:42:03.807Z,9.40
2019-05-13T04:44:32.310Z,9.30
2019-05-13T04:46:59.220Z,9.40
2019-05-13T04:49:25.898Z,9.30
2019-05-13T04:51:52.616Z,9.20
2019-05-13T04:54:22.567Z,9.20
2019-05-13T04:56:48.095Z,9.00
2019-05-13T04:59:14.968Z,8.80
2019-05-13T05:01:55.387Z,8.80
2019-05-13T05:04:34.835Z,8.80
2019-05-13T05:07:27.364Z,8.90
2019-05-13T05:10:25.889Z,8.90
2019-05-13T05:13:02.416Z,9.00
2019-05-13T05:16:02.630Z,9.10
2019-05-13T05:18:38.282Z,9.20
2019-05-13T05:21:18.045Z,9.30
2019-05-13T05:23:48.399Z,9.30
2019-05-13T05:26:28.013Z,9.30
2019-05-13T05:29:01.926Z,9.30
2019-05-13T05:31:38.236Z,9.40
2019-05-13T05:34:28.442Z,9.40
2019-05-13T05:37:19.628Z,9.40
2019-05-13T05:39:47.287Z,9.40
2019-05-13T05:42:14.169Z,9.40
2019-05-13T05:44:43.519Z,9.40
2019-05-13T05:47:12.509Z,9.40
2019-05-13T05:49:41.125Z,9.40
2019-05-13T05:52:08.178Z,9.40
2019-05-13T05:54:37.444Z,9.40
2019-05-13T05:57:05.304Z,9.40
2019-05-13T05:59:33.723Z,9.40
2019-05-13T06:02:02.045Z,9.40
2019-05-13T06:04:32.295Z,9.40
2019-05-13T06:06:57.777Z,9.50
2019-05-13T06:09:24.719Z,9.40
2019-05-13T06:11:53.381Z,9.40
2019-05-13T06:14:21.917Z,9.50
2019-05-13T06:16:51.736Z,9.60
2019-05-13T06:19:21.916Z,9.60
2019-05-13T06:21:48.203Z,9.50
2019-05-13T06:24:15.353Z,9.60
2019-05-13T06:26:42.238Z,9.60
2019-05-13T06:29:11.482Z,9.60
2019-05-13T06:31:37.537Z,9.60
2019-05-13T06:34:04.272Z,9.70
2019-05-13T06:36:31.782Z,9.70
2019-05-13T06:38:58.645Z,9.60
2019-05-13T06:41:25.421Z,9.70
2019-05-13T06:43:52.457Z,9.70
2019-05-13T06:46:21.702Z,9.70
2019-05-13T06:48:47.908Z,9.80
2019-05-13T06:51:14.687Z,9.80
2019-05-13T06:53:41.580Z,9.90
2019-05-13T06:56:08.388Z,9.90
2019-05-13T06:58:35.188Z,9.90
2019-05-13T07:01:03.739Z,10.00
2019-05-13T07:03:32.302Z,10.10
2019-05-13T07:06:01.633Z,10.10
2019-05-13T07:08:27.894Z,10.10
2019-05-13T07:10:54.527Z,10.10
2019-05-13T07:13:21.916Z,10.20
2019-05-13T07:15:48.859Z,10.20
2019-05-13T07:18:16.354Z,10.20
2019-05-13T07:20:43.204Z,10.20
2019-05-13T07:23:12.122Z,10.20
2019-05-13T07:25:38.528Z,10.20
2019-05-13T07:28:05.272Z,10.10
2019-05-13T07:30:38.340Z,10.00
2019-05-13T07:33:05.189Z,10.00
2019-05-13T07:35:37.445Z,10.00
2019-05-13T07:38:02.206Z,9.80
2019-05-13T07:40:32.054Z,9.80
2019-05-13T07:42:58.044Z,9.80
2019-05-13T07:45:24.871Z,9.70
2019-05-13T07:47:52.127Z,9.70
2019-05-13T07:50:18.929Z,9.70
2019-05-13T07:52:45.840Z,9.80
2019-05-13T07:55:13.442Z,9.80
2019-05-13T07:57:42.364Z,9.70
2019-05-13T08:00:12.454Z,9.60
2019-05-13T08:02:41.740Z,9.50
2019-05-13T08:05:08.263Z,9.50
2019-05-13T08:07:35.204Z,9.30
2019-05-13T08:10:03.714Z,9.30
2019-05-13T08:12:31.944Z,9.30
2019-05-13T08:14:59.253Z,9.40
2019-05-13T08:17:25.925Z,9.30
2019-05-13T08:19:52.677Z,9.30
2019-05-13T08:22:21.868Z,9.30
2019-05-13T08:24:50.972Z,9.30
2019-05-13T08:27:21.625Z,9.30
2019-05-13T08:29:46.842Z,9.40
2019-05-13T08:32:13.757Z,9.50
2019-05-13T08:34:41.704Z,9.40
2019-05-13T08:37:11.210Z,9.40
2019-05-13T08:39:38.613Z,9.40
2019-05-13T08:42:15.622Z,9.30
2019-05-13T08:44:34.053Z,9.30
2019-05-13T08:47:03.124Z,9.40
2019-05-13T08:49:29.423Z,9.40
2019-05-13T08:51:56.224Z,9.40
2019-05-13T08:54:23.223Z,9.30
2019-05-13T08:56:52.104Z,9.30
2019-05-13T08:59:18.608Z,9.30
2019-05-13T09:01:45.372Z,9.20
2019-05-13T09:04:12.228Z,9.20
2019-05-13T09:06:41.701Z,9.20
2019-05-13T09:09:08.082Z,9.20
2019-05-13T09:11:35.033Z,9.10
2019-05-13T09:14:02.412Z,9.10
2019-05-13T09:16:31.825Z,9.20
2019-05-13T09:18:57.873Z,9.20
2019-05-13T09:21:25.943Z,9.20
2019-05-13T09:23:52.729Z,9.20
2019-05-13T09:26:19.509Z,9.30
2019-05-13T09:28:46.437Z,9.30
2019-05-13T09:31:13.265Z,9.30
2019-05-13T09:33:41.835Z,9.30
2019-05-13T09:36:08.658Z,9.30
2019-05-13T09:38:35.429Z,9.40
2019-05-13T09:41:02.341Z,9.20
2019-05-13T09:43:31.410Z,9.30
2019-05-13T09:45:57.978Z,9.30
2019-05-13T09:48:24.722Z,9.30
2019-05-13T09:50:51.882Z,9.30
2019-05-13T09:53:18.781Z,9.50
2019-05-13T09:55:45.557Z,9.50
2019-05-13T09:58:12.317Z,9.40
2019-05-13T10:00:41.846Z,9.50
2019-05-13T10:03:07.737Z,9.50
2019-05-13T10:05:34.512Z,9.50
2019-05-13T10:08:02.397Z,9.40
2019-05-13T10:10:31.853Z,9.40
2019-05-13T10:13:09.200Z,9.40
2019-05-13T10:15:27.367Z,9.50
2019-05-13T10:17:54.259Z,9.40
2019-05-13T10:20:24.617Z,9.50
2019-05-13T10:22:52.531Z,9.40
2019-05-13T10:25:22.236Z,9.40
2019-05-13T10:27:48.285Z,9.50
2019-05-13T10:30:15.184Z,9.40
2019-05-13T10:32:42.732Z,9.40
2019-05-13T10:35:10.001Z,9.50
2019-05-13T10:37:36.843Z,9.50
2019-05-13T10:40:04.319Z,9.40
2019-05-13T10:42:31.127Z,9.50
2019-05-13T10:44:57.905Z,9.60
2019-05-13T10:47:24.737Z,9.60
2019-05-13T10:49:52.325Z,9.70
2019-05-13T10:52:19.308Z,9.80
2019-05-13T10:54:46.101Z,9.80
2019-05-13T10:57:13.614Z,9.80
2019-05-13T10:59:40.714Z,9.70
2019-05-13T11:02:07.776Z,9.80
2019-05-13T11:04:34.677Z,9.90
2019-05-13T11:07:02.982Z,9.90
2019-05-13T11:09:32.420Z,9.90
2019-05-13T11:12:01.831Z,10.00
2019-05-13T11:14:27.274Z,9.90
2019-05-13T11:16:53.929Z,9.80
2019-05-13T11:19:22.900Z,9.90
2019-05-13T11:21:50.762Z,9.90
2019-05-13T11:24:17.748Z,9.90
2019-05-13T11:26:44.547Z,10.10
2019-05-13T11:29:12.110Z,10.20
2019-05-13T11:31:38.937Z,10.30
2019-05-13T11:34:05.629Z,10.40
2019-05-13T11:36:33.331Z,10.20
2019-05-13T11:39:02.957Z,10.30
2019-05-13T11:41:32.452Z,10.50
2019-05-13T11:44:12.159Z,10.70
2019-05-13T11:46:27.169Z,10.90
2019-05-13T11:48:54.039Z,11.10
2019-05-13T11:51:24.209Z,11.20
2019-05-13T11:53:50.558Z,11.30
2019-05-13T11:56:18.140Z,11.20
2019-05-13T11:58:44.899Z,11.20
2019-05-13T12:01:11.904Z,11.20
2019-05-13T12:03:42.868Z,11.20
2019-05-13T12:06:07.794Z,11.20
2019-05-13T12:08:34.715Z,11.10
2019-05-13T12:11:04.119Z,11.10
2019-05-13T12:13:32.272Z,11.20
2019-05-13T12:15:58.912Z,11.10
2019-05-13T12:18:26.583Z,11.10
2019-05-13T12:20:54.264Z,11.10
2019-05-13T12:23:21.196Z,11.00
2019-05-13T12:25:48.004Z,11.00
2019-05-13T12:28:14.744Z,11.00
2019-05-13T12:30:41.911Z,10.90
2019-05-13T12:33:08.751Z,10.90
2019-05-13T12:35:35.470Z,11.00
2019-05-13T12:38:02.334Z,11.10
2019-05-13T12:40:33.805Z,11.10
2019-05-13T12:43:01.330Z,10.90
2019-05-13T12:45:27.434Z,10.90
2019-05-13T12:47:54.229Z,10.90
2019-05-13T12:50:23.683Z,10.90
2019-05-13T12:52:51.470Z,11.00
2019-05-13T12:55:18.478Z,11.00
2019-05-13T12:57:45.235Z,10.90
2019-05-13T13:00:13.249Z,11.00
2019-05-13T13:02:40.232Z,11.00
2019-05-13T13:05:14.081Z,11.10
2019-05-13T13:07:41.217Z,11.10
2019-05-13T13:10:04.545Z,11.00
2019-05-13T13:12:36.007Z,11.00
2019-05-13T13:15:06.571Z,11.10
2019-05-13T13:17:28.522Z,11.10
2019-05-13T13:20:04.758Z,11.10
2019-05-13T13:22:25.336Z,11.00
2019-05-13T13:24:57.134Z,11.10
2019-05-13T13:27:28.491Z,10.90
2019-05-13T13:30:01.686Z,10.90
2019-05-13T13:32:18.215Z,11.00
2019-05-13T13:34:45.008Z,10.90
2019-05-13T13:37:12.090Z,10.80
2019-05-13T13:39:42.253Z,10.80
2019-05-13T13:42:07.608Z,10.80
2019-05-13T13:44:35.044Z,10.80
2019-05-13T13:47:02.008Z,10.70
2019-05-13T13:49:28.777Z,10.80
2019-05-13T13:51:55.601Z,10.80
2019-05-13T13:54:22.632Z,10.90
2019-05-13T13:56:55.099Z,10.80
2019-05-13T13:59:18.221Z,10.80
2019-05-13T14:01:44.967Z,10.80
2019-05-13T14:04:16.283Z,10.80
2019-05-13T14:09:08.879Z,10.80
2019-05-13T14:11:35.644Z,10.90
2019-05-13T14:14:02.493Z,10.90
2019-05-13T14:16:34.285Z,10.90
2019-05-13T14:18:57.870Z,10.90
2019-05-13T14:21:24.520Z,10.90
2019-05-13T14:23:51.956Z,10.90
2019-05-13T14:26:22.127Z,10.90
2019-05-13T14:28:48.369Z,10.90
2019-05-13T14:31:15.257Z,11.00
2019-05-13T14:33:42.526Z,11.00
2019-05-13T14:36:12.086Z,11.00
2019-05-13T14:38:38.085Z,10.90
2019-05-13T14:41:04.863Z,11.00
2019-05-13T14:43:31.932Z,11.00
2019-05-13T14:45:58.901Z,10.90
2019-05-13T14:48:25.593Z,10.90
2019-05-13T14:50:52.442Z,10.90
2019-05-13T14:53:21.445Z,11.00
2019-05-13T14:55:47.922Z,11.00
2019-05-13T14:58:14.881Z,10.90
2019-05-13T15:00:42.278Z,10.90
2019-05-13T15:03:09.172Z,10.90
2019-05-13T15:05:36.156Z,10.90
2019-05-13T15:08:04.019Z,10.80
2019-05-13T15:10:31.497Z,10.80
2019-05-13T15:12:58.371Z,10.90
2019-05-13T15:15:25.161Z,10.90
2019-05-13T15:17:52.116Z,10.80
2019-05-13T15:20:18.940Z,10.80
2019-05-13T15:22:45.797Z,10.80
2019-05-13T15:25:12.475Z,10.90
2019-05-13T15:27:41.360Z,10.90
2019-05-13T15:30:17.474Z,10.70
2019-05-13T15:32:37.057Z,10.80
2019-05-13T15:35:04.692Z,10.80
2019-05-13T15:37:32.127Z,10.70
2019-05-13T15:39:59.076Z,10.70
2019-05-13T15:42:25.850Z,10.80
2019-05-13T15:44:53.139Z,10.80
2019-05-13T15:47:24.050Z,10.70
2019-05-13T15:49:49.532Z,10.80
2019-05-13T15:52:16.217Z,10.80
2019-05-13T15:54:43.008Z,10.80
2019-05-13T15:57:11.982Z,10.80
2019-05-13T15:59:38.245Z,10.80
2019-05-13T16:02:05.119Z,10.80
2019-05-13T16:04:32.089Z,10.80
2019-05-13T16:07:01.462Z,10.80
2019-05-13T16:09:27.583Z,10.70
2019-05-13T16:11:54.436Z,10.70
2019-05-13T16:14:22.009Z,10.60
2019-05-13T16:16:49.479Z,10.50
2019-05-13T16:19:16.342Z,10.50
2019-05-13T16:21:43.486Z,10.40
2019-05-13T16:24:12.028Z,10.40
2019-05-13T16:26:38.989Z,10.40
2019-05-13T16:29:05.768Z,10.30
2019-05-13T16:31:32.556Z,10.30
2019-05-13T16:34:01.562Z,10.30
2019-05-13T16:36:28.014Z,10.30
2019-05-13T16:38:55.421Z,10.40
2019-05-13T16:41:22.259Z,10.40
2019-05-13T16:43:49.132Z,10.30
2019-05-13T16:46:15.921Z,10.40
2019-05-13T16:48:42.704Z,10.50
2019-05-13T16:51:12.050Z,10.50
2019-05-13T16:53:38.114Z,10.50
2019-05-13T16:56:04.958Z,10.50
2019-05-13T16:58:32.538Z,10.50
2019-05-13T17:01:02.193Z,10.50
2019-05-13T17:03:28.115Z,10.50
2019-05-13T17:05:55.597Z,10.60
2019-05-13T17:08:22.542Z,10.70
2019-05-13T17:10:51.392Z,10.70
2019-05-13T17:13:18.621Z,10.70
2019-05-13T17:15:45.552Z,10.70
2019-05-13T17:18:15.270Z,10.80
2019-05-13T17:20:41.464Z,10.70
2019-05-13T17:23:08.409Z,10.70
2019-05-13T17:25:35.412Z,10.60
2019-05-13T17:28:03.247Z,10.70
2019-05-13T17:30:31.998Z,10.60
2019-05-13T17:32:58.736Z,10.60
2019-05-13T17:35:25.607Z,10.60
2019-05-13T17:37:52.453Z,10.60
2019-05-13T17:40:19.264Z,10.50
2019-05-13T17:42:46.099Z,10.60
2019-05-13T17:45:13.486Z,10.60
2019-05-13T17:47:41.816Z,10.60
2019-05-13T17:50:11.638Z,10.60
2019-05-13T17:52:38.304Z,10.60
2019-05-13T17:55:05.453Z,10.60
2019-05-13T17:57:32.385Z,10.60
2019-05-13T17:59:59.168Z,10.60
2019-05-13T18:02:26.027Z,10.60
2019-05-13T18:04:52.870Z,10.60
2019-05-13T18:07:21.451Z,10.60
2019-05-13T18:09:48.334Z,10.60
2019-05-13T18:12:15.190Z,10.60
2019-05-13T18:14:42.004Z,10.60
2019-05-13T18:17:08.807Z,10.50
2019-05-13T18:19:35.476Z,10.50
2019-05-13T18:22:02.447Z,10.50
2019-05-13T18:24:29.196Z,10.40
2019-05-13T18:26:56.063Z,10.40
2019-05-13T18:29:22.840Z,10.40
2019-05-13T18:31:49.474Z,10.30
2019-05-13T18:34:16.353Z,10.30
2019-05-13T18:36:43.133Z,10.30
2019-05-13T18:39:12.112Z,10.20
2019-05-13T18:41:38.247Z,10.20
2019-05-13T18:44:05.015Z,10.10
2019-05-13T18:46:32.266Z,10.10
2019-05-13T18:49:01.662Z,10.10
2019-05-13T18:51:27.747Z,10.20
2019-05-13T18:53:55.670Z,10.10
2019-05-13T18:56:22.429Z,10.10
2019-05-13T18:58:49.184Z,10.10
2019-05-13T19:01:15.965Z,10.10
2019-05-13T19:03:42.755Z,10.10
2019-05-13T19:06:11.432Z,10.10
2019-05-13T19:08:37.992Z,10.10
2019-05-13T19:11:04.782Z,10.10
2019-05-13T19:13:32.587Z,10.00
2019-05-13T19:15:59.572Z,10.00
2019-05-13T19:18:26.406Z,10.10
2019-05-13T19:20:53.163Z,10.10
2019-05-13T19:23:19.958Z,10.00
2019-05-13T19:25:46.711Z,10.00
2019-05-13T19:28:13.568Z,10.10
2019-05-13T19:30:41.185Z,10.10
2019-05-13T19:33:08.030Z,10.10
2019-05-13T19:35:34.810Z,10.10
2019-05-13T19:38:01.757Z,10.10
2019-05-13T19:40:28.537Z,10.20
2019-05-13T19:42:55.282Z,10.20
2019-05-13T19:45:22.089Z,10.20
2019-05-13T19:47:48.956Z,10.20
2019-05-13T19:50:15.983Z,10.20
2019-05-13T19:52:42.771Z,10.20
2019-05-13T19:55:11.878Z,10.20
2019-05-13T19:57:38.154Z,10.20
2019-05-13T20:00:09.950Z,10.30
2019-05-13T20:02:34.903Z,10.30
2019-05-13T20:05:01.576Z,10.30
2019-05-13T20:07:31.830Z,10.30
2019-05-13T20:09:58.223Z,10.40
2019-05-13T20:12:24.899Z,10.40
2019-05-13T20:14:52.259Z,10.40
2019-05-13T20:17:19.119Z,10.40
2019-05-13T20:19:50.552Z,10.40
2019-05-13T20:22:15.146Z,10.40
2019-05-13T20:24:42.268Z,10.50
2019-05-13T20:27:08.996Z,10.50
2019-05-13T20:29:35.786Z,10.50
2019-05-13T20:32:02.525Z,10.50
2019-05-13T20:34:31.505Z,10.50
2019-05-13T20:36:57.690Z,10.40
2019-05-13T20:39:24.469Z,10.40
2019-05-13T20:41:55.547Z,10.40
2019-05-13T20:44:21.968Z,10.40
2019-05-13T20:46:48.258Z,10.40
2019-05-13T20:49:15.086Z,10.40
2019-05-13T20:51:41.921Z,10.40
2019-05-13T20:54:11.197Z,10.40
2019-05-13T20:56:37.625Z,10.40
2019-05-13T20:59:04.407Z,10.50
2019-05-13T21:01:31.175Z,10.40
2019-05-13T21:03:57.941Z,10.50
2019-05-13T21:06:24.989Z,10.50
2019-05-13T21:08:52.283Z,10.50
2019-05-13T21:11:19.378Z,10.50
2019-05-13T21:13:46.248Z,10.40
2019-05-13T21:16:13.019Z,10.50
2019-05-13T21:18:41.949Z,10.50
2019-05-13T21:21:08.527Z,10.50
2019-05-13T21:23:35.272Z,10.50
2019-05-13T21:26:02.193Z,10.50
2019-05-13T21:28:29.010Z,10.50
2019-05-13T21:30:55.636Z,10.50
2019-05-13T21:33:22.397Z,10.50
2019-05-13T21:35:51.135Z,10.60
2019-05-13T21:38:17.903Z,10.50
2019-05-13T21:40:44.580Z,10.50
2019-05-13T21:43:11.826Z,10.50
2019-05-13T21:45:38.899Z,10.50
2019-05-13T21:48:05.632Z,10.50
2019-05-13T21:50:36.905Z,10.60
2019-05-13T21:53:02.036Z,10.50
2019-05-13T21:55:28.892Z,10.50
2019-05-13T21:57:55.557Z,10.50
2019-05-13T22:00:25.213Z,10.60
2019-05-13T22:02:53.865Z,10.50
2019-05-13T22:05:22.223Z,10.50
2019-05-13T22:07:49.088Z,10.60
2019-05-13T22:10:15.949Z,10.60
2019-05-13T22:12:46.653Z,10.60
2019-05-13T22:15:13.396Z,10.50
2019-05-13T22:17:42.079Z,10.60
2019-05-13T22:20:12.069Z,10.50
2019-05-13T22:22:38.704Z,10.50
2019-05-13T22:25:05.659Z,10.50
2019-05-13T22:27:32.352Z,10.50
2019-05-13T22:30:01.186Z,10.50
2019-05-13T22:32:27.800Z,10.50
2019-05-13T22:34:54.564Z,10.50
2019-05-13T22:37:23.200Z,10.50
2019-05-13T22:39:49.791Z,10.60
2019-05-13T22:42:16.654Z,10.50
2019-05-13T22:44:43.517Z,10.50
2019-05-13T22:47:13.088Z,10.50
2019-05-13T22:49:38.858Z,10.50
2019-05-13T22:52:05.588Z,10.50
2019-05-13T22:54:32.333Z,10.50
2019-05-13T22:56:59.109Z,10.50
2019-05-13T22:59:26.032Z,10.50
2019-05-13T23:01:52.962Z,10.40
2019-05-13T23:04:19.754Z,10.50
2019-05-13T23:06:46.393Z,10.50
2019-05-13T23:09:13.162Z,10.50
2019-05-13T23:11:41.773Z,10.50
2019-05-13T23:14:10.933Z,10.50
2019-05-13T23:16:36.876Z,10.50
2019-05-13T23:19:03.668Z,10.50
2019-05-13T23:21:31.265Z,10.50
2019-05-13T23:23:58.074Z,10.50
2019-05-13T23:26:24.862Z,10.40
2019-05-13T23:28:52.209Z,10.40
2019-05-13T23:31:19.086Z,10.40
2019-05-13T23:33:46.023Z,10.50
2019-05-13T23:36:12.658Z,10.50
2019-05-13T23:38:41.354Z,10.50
2019-05-13T23:41:07.922Z,10.40
2019-05-13T23:43:34.582Z,10.40
2019-05-13T23:46:01.444Z,10.40
2019-05-13T23:48:28.187Z,10.40
2019-05-13T23:50:54.845Z,10.40
2019-05-13T23:53:21.972Z,10.30
2019-05-13T23:55:48.709Z,10.30
2019-05-13T23:58:15.369Z,10.30
